createdAt,value
2018-05-17T04:01:38.374Z,22.37
2018-05-17T04:04:16.648Z,22.13
2018-05-17T04:06:42.415Z,21.77
2018-05-17T04:09:08.445Z,22.30
2018-05-17T04:11:34.213Z,21.47
2018-05-17T04:14:00.229Z,21.60
2018-05-17T04:16:25.948Z,20.73
2018-05-17T04:18:51.714Z,23.40
2018-05-17T04:21:17.484Z,21.93
2018-05-17T04:23:43.288Z,23.73
2018-05-17T04:26:09.048Z,21.77
2018-05-17T04:28:34.940Z,21.83
2018-05-17T04:31:00.721Z,21.63
2018-05-17T04:33:26.474Z,23.03
2018-05-17T04:35:52.242Z,20.90
2018-05-17T04:38:18.012Z,21.27
2018-05-17T04:40:43.777Z,20.43
2018-05-17T04:43:09.532Z,20.63
2018-05-17T04:45:35.305Z,22.77
2018-05-17T04:48:01.078Z,21.20
2018-05-17T04:50:26.866Z,20.23
2018-05-17T04:52:52.626Z,19.07
2018-05-17T04:55:18.385Z,22.10
2018-05-17T04:57:44.134Z,20.30
2018-05-17T05:00:09.898Z,20.37
2018-05-17T05:02:35.676Z,19.83
2018-05-17T05:05:01.426Z,20.60
2018-05-17T05:07:27.185Z,21.63
2018-05-17T05:09:52.941Z,21.03
2018-05-17T05:12:18.702Z,22.23
2018-05-17T05:14:44.454Z,19.90
2018-05-17T05:17:10.222Z,19.33
2018-05-17T05:19:38.056Z,20.90
2018-05-17T05:22:04.839Z,21.10
2018-05-17T05:24:32.833Z,19.27
2018-05-17T05:26:59.485Z,22.30
2018-05-17T05:29:25.277Z,22.17
2018-05-17T05:31:51.632Z,22.37
2018-05-17T05:34:17.385Z,21.97
2018-05-17T05:36:43.142Z,20.53
2018-05-17T05:39:08.902Z,21.40
2018-05-17T05:41:34.690Z,22.20
2018-05-17T05:44:01.277Z,21.67
2018-05-17T05:46:27.105Z,20.17
2018-05-17T05:48:52.856Z,21.20
2018-05-17T05:51:20.407Z,23.33
2018-05-17T05:53:46.290Z,21.30
2018-05-17T05:56:12.033Z,21.33
2018-05-17T05:58:37.790Z,22.97
2018-05-17T06:01:03.545Z,23.23
2018-05-17T06:03:29.347Z,22.07
2018-05-17T06:05:55.121Z,24.03
2018-05-17T06:08:20.947Z,22.47
2018-05-17T06:10:46.682Z,24.63
2018-05-17T06:13:12.453Z,25.43
2018-05-17T06:15:38.788Z,25.30
2018-05-17T06:18:04.604Z,25.13
2018-05-17T06:20:30.365Z,24.73
2018-05-17T06:22:56.121Z,23.60
2018-05-17T06:25:21.901Z,24.37
2018-05-17T06:27:47.674Z,24.77
2018-05-17T06:30:13.534Z,25.50
2018-05-17T06:32:39.302Z,23.70
2018-05-17T06:35:05.065Z,25.27
2018-05-17T06:37:30.850Z,25.10
2018-05-17T06:39:56.592Z,26.40
2018-05-17T06:42:22.350Z,26.70
2018-05-17T06:44:55.665Z,27.47
2018-05-17T06:47:21.794Z,25.97
2018-05-17T06:49:47.557Z,27.30
2018-05-17T06:52:13.310Z,25.97
2018-05-17T06:54:39.093Z,25.83
2018-05-17T06:57:04.849Z,26.37
2018-05-17T06:59:30.608Z,26.20
2018-05-17T07:01:56.361Z,26.53
2018-05-17T07:04:22.126Z,25.67
2018-05-17T07:06:47.901Z,25.93
2018-05-17T07:09:13.657Z,25.77
2018-05-17T07:11:39.427Z,26.97
2018-05-17T07:14:05.170Z,24.33
2018-05-17T07:16:30.977Z,25.40
2018-05-17T07:18:56.741Z,25.20
2018-05-17T07:21:22.497Z,25.20
2018-05-17T07:23:48.254Z,25.43
2018-05-17T07:26:21.039Z,23.53
2018-05-17T07:28:46.800Z,24.77
2018-05-17T07:31:12.552Z,24.17
2018-05-17T07:33:38.304Z,24.47
2018-05-17T07:36:04.073Z,23.40
2018-05-17T07:38:29.821Z,23.53
2018-05-17T07:40:55.597Z,21.57
2018-05-17T07:43:21.354Z,21.57
2018-05-17T07:45:47.117Z,21.50
2018-05-17T07:48:12.878Z,21.90
2018-05-17T07:50:38.633Z,20.10
2018-05-17T07:53:04.385Z,21.07
2018-05-17T07:55:30.131Z,20.70
2018-05-17T07:57:55.902Z,20.63
2018-05-17T08:00:21.709Z,20.40
2018-05-17T08:02:47.460Z,19.63
2018-05-17T08:05:13.210Z,21.67
2018-05-17T08:07:38.969Z,20.30
2018-05-17T08:10:04.745Z,19.03
2018-05-17T08:12:30.589Z,20.03
2018-05-17T08:14:56.334Z,19.90
2018-05-17T08:17:22.103Z,17.77
2018-05-17T08:19:47.862Z,19.80
2018-05-17T08:22:13.613Z,19.87
2018-05-17T08:24:39.381Z,18.20
2018-05-17T08:27:05.131Z,17.73
2018-05-17T08:29:30.893Z,19.20
2018-05-17T08:31:56.637Z,19.70
2018-05-17T08:34:22.402Z,17.87
2018-05-17T08:36:48.288Z,16.93
2018-05-17T08:39:13.942Z,18.47
2018-05-17T08:41:39.697Z,17.80
2018-05-17T08:44:05.463Z,19.20
2018-05-17T08:46:31.217Z,16.80
2018-05-17T08:48:56.969Z,17.63
2018-05-17T08:51:22.722Z,16.60
2018-05-17T08:53:48.490Z,17.87
2018-05-17T08:56:14.242Z,18.80
2018-05-17T08:58:40.017Z,19.13
2018-05-17T09:01:05.778Z,18.37
2018-05-17T09:03:31.534Z,17.13
2018-05-17T09:05:57.311Z,18.73
2018-05-17T09:08:23.062Z,17.50
2018-05-17T09:10:48.824Z,19.27
2018-05-17T09:13:14.577Z,18.07
2018-05-17T09:15:40.355Z,18.23
2018-05-17T09:18:06.108Z,17.33
2018-05-17T09:20:31.926Z,18.40
2018-05-17T09:22:57.645Z,18.60
2018-05-17T09:25:23.398Z,17.20
2018-05-17T09:27:49.153Z,17.80
2018-05-17T09:30:14.921Z,17.83
2018-05-17T09:32:40.686Z,17.27
2018-05-17T09:35:06.438Z,17.53
2018-05-17T09:37:32.193Z,16.70
2018-05-17T09:39:58.027Z,18.33
2018-05-17T09:42:23.721Z,17.63
2018-05-17T09:44:49.475Z,17.00
2018-05-17T09:47:15.242Z,15.53
2018-05-17T09:49:41.004Z,17.40
2018-05-17T09:52:06.766Z,16.50
2018-05-17T09:54:32.513Z,17.27
2018-05-17T09:56:58.265Z,15.30
2018-05-17T09:59:24.016Z,15.80
2018-05-17T10:01:49.770Z,14.57
2018-05-17T10:04:15.522Z,16.67
2018-05-17T10:06:41.307Z,16.17
2018-05-17T10:09:07.118Z,15.47
2018-05-17T10:11:32.874Z,14.90
2018-05-17T10:13:58.649Z,13.97
2018-05-17T10:16:24.397Z,15.60
2018-05-17T10:18:50.162Z,14.57
2018-05-17T10:21:15.917Z,14.50
2018-05-17T10:23:41.674Z,13.70
2018-05-17T10:26:07.429Z,12.83
2018-05-17T10:28:33.198Z,13.20
2018-05-17T10:30:58.963Z,13.07
2018-05-17T10:33:24.729Z,13.17
2018-05-17T10:35:50.489Z,11.43
2018-05-17T10:38:16.248Z,11.70
2018-05-17T10:40:41.997Z,12.90
2018-05-17T10:43:07.751Z,13.83
2018-05-17T10:45:33.528Z,12.20
2018-05-17T10:47:59.279Z,12.57
2018-05-17T10:50:25.038Z,12.70
2018-05-17T10:52:50.802Z,13.63
2018-05-17T10:55:16.557Z,12.33
2018-05-17T10:57:42.324Z,13.33
2018-05-17T11:00:08.089Z,12.60
2018-05-17T11:02:33.851Z,11.30
2018-05-17T11:04:59.610Z,11.90
2018-05-17T11:07:25.366Z,14.30
2018-05-17T11:09:51.117Z,12.93
2018-05-17T11:12:16.943Z,11.70
2018-05-17T11:14:42.642Z,12.70
2018-05-17T11:17:08.406Z,12.10
2018-05-17T11:19:34.158Z,12.27
2018-05-17T11:21:59.922Z,11.47
2018-05-17T11:24:25.672Z,12.20
2018-05-17T11:26:51.437Z,11.63
2018-05-17T11:29:17.193Z,10.97
2018-05-17T11:31:42.965Z,11.10
2018-05-17T11:34:08.716Z,9.37
2018-05-17T11:36:34.493Z,12.27
2018-05-17T11:39:00.245Z,12.90
2018-05-17T11:41:25.995Z,12.13
2018-05-17T11:43:51.785Z,11.30
2018-05-17T11:46:17.565Z,12.27
2018-05-17T11:48:43.327Z,11.37
2018-05-17T11:51:09.085Z,11.60
2018-05-17T11:53:34.839Z,12.50
2018-05-17T11:56:00.589Z,12.30
2018-05-17T11:58:26.353Z,11.00
2018-05-17T12:00:52.112Z,11.77
2018-05-17T12:03:17.867Z,12.10
2018-05-17T12:05:43.701Z,11.40
2018-05-17T12:08:09.481Z,11.60
2018-05-17T12:10:35.229Z,11.80
2018-05-17T12:13:01.010Z,11.10
2018-05-17T12:15:26.757Z,10.93
2018-05-17T12:17:52.525Z,11.50
2018-05-17T12:20:18.286Z,10.80
2018-05-17T12:22:44.034Z,10.30
2018-05-17T12:25:09.806Z,8.83
2018-05-17T12:27:35.562Z,10.53
2018-05-17T12:30:01.339Z,9.13
2018-05-17T12:32:27.102Z,9.27
2018-05-17T12:34:52.864Z,8.80
2018-05-17T12:37:18.617Z,9.13
2018-05-17T12:39:44.402Z,8.10
2018-05-17T12:42:10.158Z,8.50
2018-05-17T12:44:35.937Z,8.60
2018-05-17T12:47:01.687Z,8.70
2018-05-17T12:49:27.461Z,9.43
2018-05-17T12:51:53.218Z,9.37
2018-05-17T12:54:18.989Z,9.70
2018-05-17T12:56:44.770Z,8.90
2018-05-17T12:59:10.533Z,8.70
2018-05-17T13:01:36.289Z,8.67
2018-05-17T13:04:02.081Z,8.40
2018-05-17T13:06:27.842Z,8.30
2018-05-17T13:08:53.601Z,8.00
2018-05-17T13:11:19.366Z,8.77
2018-05-17T13:13:45.122Z,7.80
2018-05-17T13:16:10.952Z,7.87
2018-05-17T13:18:36.721Z,7.30
2018-05-17T13:21:02.488Z,7.63
2018-05-17T13:23:28.241Z,6.80
2018-05-17T13:25:54.006Z,6.97
2018-05-17T13:28:19.782Z,6.27
2018-05-17T13:30:45.545Z,7.67
2018-05-17T13:33:11.302Z,6.60
2018-05-17T13:35:37.093Z,6.77
2018-05-17T13:38:02.874Z,6.83
2018-05-17T13:40:28.630Z,6.10
2018-05-17T13:42:54.385Z,6.10
2018-05-17T13:45:20.149Z,6.77
2018-05-17T13:47:45.938Z,5.93
2018-05-17T13:50:12.277Z,6.37
2018-05-17T13:52:38.084Z,6.10
2018-05-17T13:55:03.893Z,6.40
2018-05-17T13:57:31.515Z,6.80
2018-05-17T13:59:57.282Z,6.53
2018-05-17T14:02:23.086Z,6.60
2018-05-17T14:04:48.821Z,7.47
2018-05-17T14:07:14.600Z,6.60
2018-05-17T14:09:40.404Z,6.07
2018-05-17T14:12:06.151Z,7.50
2018-05-17T14:14:31.953Z,7.00
2018-05-17T14:16:57.697Z,6.70
2018-05-17T14:19:23.452Z,6.30
2018-05-17T14:21:49.212Z,6.87
2018-05-17T14:24:14.978Z,6.70
2018-05-17T14:26:40.729Z,6.60
2018-05-17T14:29:06.487Z,6.53
2018-05-17T14:31:32.245Z,6.77
2018-05-17T14:33:59.387Z,6.50
2018-05-17T14:36:25.201Z,7.67
2018-05-17T14:38:51.022Z,7.00
2018-05-17T14:41:16.770Z,6.97
2018-05-17T14:43:42.514Z,6.60
2018-05-17T14:46:08.325Z,5.63
2018-05-17T14:48:34.016Z,6.50
2018-05-17T14:50:59.795Z,6.47
2018-05-17T14:53:25.545Z,6.60
2018-05-17T14:55:51.381Z,6.43
2018-05-17T14:58:17.104Z,6.27
2018-05-17T15:00:42.861Z,7.63
2018-05-17T15:03:08.603Z,7.73
2018-05-17T15:05:34.361Z,7.00
2018-05-17T15:08:00.105Z,6.70
2018-05-17T15:10:25.873Z,7.47
2018-05-17T15:12:51.634Z,6.90
2018-05-17T15:15:17.449Z,6.37
2018-05-17T15:17:43.228Z,6.70
2018-05-17T15:20:08.979Z,6.00
2018-05-17T15:22:34.741Z,6.67
2018-05-17T15:25:00.538Z,5.97
2018-05-17T15:27:26.368Z,6.03
2018-05-17T15:29:52.135Z,6.23
2018-05-17T15:32:17.833Z,6.13
2018-05-17T15:34:43.581Z,6.00
2018-05-17T15:37:09.381Z,5.80
2018-05-17T15:39:35.154Z,5.87
2018-05-17T15:42:00.914Z,5.50
2018-05-17T15:44:26.700Z,6.00
2018-05-17T15:46:52.465Z,5.10
2018-05-17T15:49:18.206Z,6.30
2018-05-17T15:51:43.957Z,5.27
2018-05-17T15:54:09.735Z,6.40
2018-05-17T15:56:35.494Z,6.43
2018-05-17T15:59:01.257Z,6.30
2018-05-17T16:01:27.059Z,6.27
2018-05-17T16:03:52.817Z,6.13
2018-05-17T16:06:18.576Z,5.40
2018-05-17T16:08:44.354Z,6.10
2018-05-17T16:11:10.138Z,6.03
2018-05-17T16:13:35.906Z,6.07
2018-05-17T16:16:01.653Z,5.33
2018-05-17T16:18:27.416Z,6.30
2018-05-17T16:20:53.166Z,5.70
2018-05-17T16:23:18.978Z,4.97
2018-05-17T16:25:44.743Z,5.33
2018-05-17T16:28:10.497Z,4.93
2018-05-17T16:30:36.310Z,5.63
2018-05-17T16:33:02.065Z,5.53
2018-05-17T16:35:27.839Z,5.30
2018-05-17T16:37:53.590Z,6.13
2018-05-17T16:40:19.354Z,5.37
2018-05-17T16:42:45.185Z,6.30
2018-05-17T16:45:10.878Z,5.17
2018-05-17T16:47:36.617Z,4.93
2018-05-17T16:50:02.386Z,4.90
2018-05-17T16:52:28.257Z,5.83
2018-05-17T16:54:53.954Z,4.50
2018-05-17T16:57:19.702Z,4.87
2018-05-17T16:59:45.469Z,5.13
2018-05-17T17:02:11.238Z,4.57
2018-05-17T17:04:37.025Z,4.77
2018-05-17T17:07:02.780Z,4.80
2018-05-17T17:09:28.529Z,5.33
2018-05-17T17:11:54.282Z,4.70
2018-05-17T17:14:20.036Z,5.27
2018-05-17T17:16:45.799Z,4.43
2018-05-17T17:19:12.450Z,4.40
2018-05-17T17:21:39.358Z,4.60
2018-05-17T17:24:08.472Z,4.03
2018-05-17T17:26:34.522Z,4.90
2018-05-17T17:29:02.190Z,4.83
2018-05-17T17:31:28.038Z,4.97
2018-05-17T17:33:55.400Z,3.57
2018-05-17T17:36:21.290Z,4.60
2018-05-17T17:38:47.016Z,4.83
2018-05-17T17:41:12.794Z,4.83
2018-05-17T17:43:38.557Z,4.53
2018-05-17T17:46:04.329Z,5.47
2018-05-17T17:48:30.086Z,4.60
2018-05-17T17:50:55.825Z,4.00
2018-05-17T17:53:21.593Z,5.60
2018-05-17T17:55:47.362Z,5.50
2018-05-17T17:58:13.164Z,4.90
2018-05-17T18:00:38.931Z,4.60
2018-05-17T18:03:04.691Z,4.70
2018-05-17T18:05:30.481Z,5.17
2018-05-17T18:07:56.191Z,5.27
2018-05-17T18:10:21.989Z,5.03
2018-05-17T18:12:47.773Z,4.73
2018-05-17T18:15:13.536Z,5.67
2018-05-17T18:17:39.311Z,4.97
2018-05-17T18:20:05.057Z,4.77
2018-05-17T18:22:31.787Z,4.70
2018-05-17T18:24:57.636Z,5.30
2018-05-17T18:27:23.311Z,4.70
2018-05-17T18:29:49.071Z,5.37
2018-05-17T18:32:14.832Z,4.47
2018-05-17T18:34:40.632Z,5.40
2018-05-17T18:37:06.388Z,6.10
2018-05-17T18:39:32.157Z,6.20
2018-05-17T18:41:57.906Z,6.10
2018-05-17T18:44:23.671Z,5.93
2018-05-17T18:46:49.460Z,6.37
2018-05-17T18:49:15.238Z,6.37
2018-05-17T18:51:41.005Z,6.80
2018-05-17T18:54:06.765Z,6.60
2018-05-17T18:56:32.520Z,6.37
2018-05-17T18:58:58.289Z,7.20
2018-05-17T19:01:24.033Z,5.70
2018-05-17T19:03:49.785Z,6.07
2018-05-17T19:06:15.531Z,6.50
2018-05-17T19:08:41.317Z,6.27
2018-05-17T19:11:07.065Z,6.67
2018-05-17T19:13:32.825Z,6.13
2018-05-17T19:15:58.583Z,6.70
2018-05-17T19:18:24.337Z,6.27
2018-05-17T19:20:50.102Z,6.10
2018-05-17T19:23:15.849Z,5.60
2018-05-17T19:25:41.612Z,6.47
2018-05-17T19:28:07.401Z,5.53
2018-05-17T19:30:33.164Z,5.53
2018-05-17T19:32:58.922Z,5.90
2018-05-17T19:35:24.684Z,6.30
2018-05-17T19:37:50.446Z,6.33
2018-05-17T19:40:16.213Z,6.50
2018-05-17T19:42:41.982Z,6.20
2018-05-17T19:45:07.746Z,6.40
2018-05-17T19:47:33.497Z,5.87
2018-05-17T19:49:59.241Z,6.03
2018-05-17T19:52:25.017Z,5.73
2018-05-17T19:54:50.785Z,6.53
2018-05-17T19:57:16.541Z,6.60
2018-05-17T19:59:49.089Z,5.60
2018-05-17T20:02:14.850Z,6.20
2018-05-17T20:04:40.598Z,5.70
2018-05-17T20:07:06.361Z,5.47
2018-05-17T20:09:32.122Z,6.20
2018-05-17T20:11:57.930Z,5.90
2018-05-17T20:14:23.681Z,6.50
2018-05-17T20:16:49.441Z,5.63
2018-05-17T20:19:15.204Z,6.10
2018-05-17T20:21:40.949Z,6.20
2018-05-17T20:24:06.712Z,6.40
2018-05-17T20:26:32.465Z,5.30
2018-05-17T20:28:58.253Z,6.60
2018-05-17T20:31:24.001Z,7.10
2018-05-17T20:33:49.780Z,8.07
2018-05-17T20:36:15.546Z,5.83
2018-05-17T20:38:41.321Z,6.70
2018-05-17T20:41:07.081Z,7.07
2018-05-17T20:43:32.842Z,6.23
2018-05-17T20:45:58.623Z,6.30
2018-05-17T20:48:24.382Z,6.20
2018-05-17T20:50:50.141Z,6.33
2018-05-17T20:53:16.013Z,6.63
2018-05-17T20:55:41.786Z,7.23
2018-05-17T20:58:07.558Z,6.83
2018-05-17T21:00:33.378Z,7.77
2018-05-17T21:02:59.116Z,8.00
2018-05-17T21:05:24.893Z,7.30
2018-05-17T21:07:50.860Z,6.90
2018-05-17T21:10:16.643Z,6.80
2018-05-17T21:12:42.415Z,7.03
2018-05-17T21:15:08.189Z,6.80
2018-05-17T21:17:33.957Z,7.63
2018-05-17T21:19:59.738Z,7.00
2018-05-17T21:22:26.195Z,6.90
2018-05-17T21:24:51.954Z,7.77
2018-05-17T21:27:17.813Z,7.40
2018-05-17T21:29:43.849Z,9.07
2018-05-17T21:32:09.620Z,7.67
2018-05-17T21:34:35.381Z,6.23
2018-05-17T21:37:01.290Z,7.90
2018-05-17T21:39:27.119Z,6.07
2018-05-17T21:41:52.826Z,7.47
2018-05-17T21:44:18.586Z,7.23
2018-05-17T21:46:44.350Z,8.03
2018-05-17T21:49:10.109Z,8.17
2018-05-17T21:51:35.899Z,7.53
2018-05-17T21:54:01.662Z,6.43
2018-05-17T21:56:27.445Z,7.67
2018-05-17T21:58:53.201Z,7.23
2018-05-17T22:01:18.955Z,8.27
2018-05-17T22:03:45.234Z,7.93
2018-05-17T22:06:12.764Z,8.00
2018-05-17T22:08:38.532Z,8.80
2018-05-17T22:11:04.292Z,7.23
2018-05-17T22:13:30.069Z,8.40
2018-05-17T22:15:55.845Z,7.40
2018-05-17T22:18:21.618Z,8.13
2018-05-17T22:20:47.377Z,7.53
2018-05-17T22:23:13.149Z,8.37
2018-05-17T22:25:38.927Z,7.80
2018-05-17T22:28:04.697Z,7.63
2018-05-17T22:30:30.450Z,8.37
2018-05-17T22:32:56.206Z,6.87
2018-05-17T22:35:21.970Z,9.70
2018-05-17T22:37:47.742Z,7.97
2018-05-17T22:40:13.522Z,8.73
2018-05-17T22:42:39.294Z,8.50
2018-05-17T22:45:05.212Z,9.63
2018-05-17T22:47:30.994Z,9.13
2018-05-17T22:49:57.662Z,8.47
2018-05-17T22:52:25.225Z,8.80
2018-05-17T22:54:51.011Z,8.03
2018-05-17T23:10:42.326Z,6.87
2018-05-17T23:13:08.102Z,7.00
2018-05-17T23:15:33.869Z,8.17
2018-05-17T23:17:59.637Z,7.17
2018-05-17T23:20:25.401Z,7.80
2018-05-17T23:22:51.170Z,7.40
2018-05-17T23:25:16.955Z,8.23
2018-05-17T23:27:42.718Z,8.63
2018-05-17T23:30:08.489Z,8.40
2018-05-17T23:32:34.254Z,8.53
2018-05-17T23:35:00.017Z,8.03
2018-05-17T23:37:25.797Z,8.33
2018-05-17T23:39:51.554Z,7.70
2018-05-17T23:42:17.337Z,9.23
2018-05-17T23:44:43.094Z,8.63
2018-05-17T23:47:08.871Z,8.50
2018-05-17T23:49:34.639Z,8.87
2018-05-17T23:52:00.426Z,8.50
2018-05-17T23:54:26.187Z,9.60
2018-05-17T23:56:51.962Z,8.20
2018-05-17T23:59:17.738Z,8.17
